Puspokladany, Hungary
Current Conditions -  °F | °C
As of 5:45 PM on Thursday 23 Oct 2014 (Local Time) from LHDC Reporting Station
Overcast Overcast  
Wind Chill: 54°   Ceiling: 8300
Heat Index: 54°   Visibility: 6mi
Dew Point: 52°   Wind: 18mph
Humidity: 94%   Direction: 30°NNE
Pressure: 29.71"   Gusts: NA
Location:  47.32°N, 21.12°E
Report Text: LHDC 231545Z 03016KT 9999 FEW020 SCT043 OVC083 12/11 Q1006 NOSIG
Loading
Personal Weather Stations






























Interactive Weather Map
Tropical Storm Tracking
New forecast layout! Learn more

10-Day Weather Forecast

Advertisements
Track Severe Weather on mobile